createdAt,value
2019-05-06T00:00:13.841Z,8.91
2019-05-06T00:05:10.878Z,8.83
2019-05-06T00:10:21.535Z,8.73
2019-05-06T00:15:18.478Z,8.61
2019-05-06T00:20:16.788Z,8.77
2019-05-06T00:25:18.569Z,8.54
2019-05-06T00:30:15.749Z,8.78
2019-05-06T00:35:14.189Z,8.75
2019-05-06T00:40:14.082Z,8.84
2019-05-06T00:45:11.271Z,8.89
2019-05-06T00:50:08.583Z,8.72
2019-05-06T00:55:05.863Z,8.66
2019-05-06T01:00:05.048Z,8.65
2019-05-06T01:05:04.378Z,8.68
2019-05-06T01:10:00.859Z,8.77
2019-05-06T01:14:59.382Z,8.64
2019-05-06T01:19:56.531Z,8.61
2019-05-06T01:24:55.862Z,8.70
2019-05-06T01:29:54.868Z,8.52
2019-05-06T01:34:53.722Z,8.53
2019-05-06T01:40:09.247Z,8.68
2019-05-06T01:45:07.085Z,8.64
2019-05-06T01:50:05.848Z,8.51
2019-05-06T01:55:05.383Z,8.61
2019-05-06T02:00:05.430Z,8.68
2019-05-06T02:05:04.756Z,8.40
2019-05-06T02:10:04.037Z,8.50
2019-05-06T02:15:01.147Z,8.55
2019-05-06T02:19:58.199Z,8.55
2019-05-06T02:24:59.877Z,8.32
2019-05-06T02:30:05.120Z,8.28
2019-05-06T02:35:09.347Z,8.35
2019-05-06T02:40:25.617Z,8.25
2019-05-06T02:45:24.013Z,8.22
2019-05-06T02:50:26.816Z,8.22
2019-05-06T02:55:23.803Z,8.33
2019-05-06T03:00:23.648Z,8.28
2019-05-06T03:05:19.954Z,8.22
2019-05-06T03:10:17.034Z,8.26
2019-05-06T03:15:16.822Z,8.07
2019-05-06T03:20:46.484Z,8.03
2019-05-06T03:25:45.220Z,7.97
2019-05-06T03:30:45.792Z,8.05
2019-05-06T03:35:52.066Z,7.92
2019-05-06T03:40:45.055Z,8.00
2019-05-06T03:45:42.900Z,8.02
2019-05-06T03:50:40.247Z,7.90
2019-05-06T03:55:37.635Z,8.05
2019-05-06T04:00:35.240Z,7.99
2019-05-06T04:05:33.719Z,8.05
2019-05-06T04:10:36.489Z,8.00
2019-05-06T04:15:48.903Z,8.05
2019-05-06T04:21:08.645Z,8.00
2019-05-06T04:26:18.098Z,7.75
2019-05-06T04:31:16.680Z,7.97
2019-05-06T04:36:14.121Z,8.01
2019-05-06T04:41:13.663Z,8.09
2019-05-06T04:46:10.269Z,8.15
2019-05-06T04:51:07.682Z,8.12
2019-05-06T04:56:05.541Z,8.08
2019-05-06T05:01:04.098Z,8.20
2019-05-06T05:06:05.049Z,8.32
2019-05-06T05:11:04.333Z,8.30
2019-05-06T05:16:02.294Z,8.01
2019-05-06T05:20:59.467Z,8.21
2019-05-06T05:25:56.465Z,8.31
2019-05-06T05:30:53.530Z,8.21
2019-05-06T05:35:52.534Z,8.04
2019-05-06T05:40:49.855Z,8.34
2019-05-06T05:45:47.168Z,8.43
2019-05-06T05:50:44.539Z,8.29
2019-05-06T05:55:42.402Z,8.45
2019-05-06T06:00:43.577Z,8.55
2019-05-06T06:05:42.777Z,8.36
2019-05-06T06:10:55.534Z,8.31
2019-05-06T06:16:13.013Z,8.25
2019-05-06T06:21:21.989Z,8.33
2019-05-06T06:26:16.576Z,8.39
2019-05-06T06:31:16.571Z,8.51
2019-05-06T06:36:17.888Z,8.61
2019-05-06T06:41:15.065Z,8.37
2019-05-06T06:46:12.662Z,8.42
2019-05-06T06:51:09.793Z,8.32
2019-05-06T06:56:22.399Z,8.32
2019-05-06T07:01:23.547Z,8.57
2019-05-06T07:06:24.931Z,8.37
2019-05-06T07:11:22.557Z,8.51
2019-05-06T07:16:24.755Z,8.53
2019-05-06T07:21:26.306Z,8.42
2019-05-06T07:26:25.262Z,8.43
2019-05-06T07:31:26.360Z,8.43
2019-05-06T07:36:25.518Z,8.38
2019-05-06T07:41:24.493Z,8.39
2019-05-06T07:46:25.325Z,8.36
2019-05-06T07:51:23.875Z,8.54
2019-05-06T07:56:22.470Z,8.44
2019-05-06T08:01:21.577Z,8.39
2019-05-06T08:06:18.692Z,8.46
2019-05-06T08:11:22.294Z,8.44
2019-05-06T08:16:19.593Z,8.56
2019-05-06T08:21:18.482Z,8.43
2019-05-06T08:26:17.695Z,8.52
2019-05-06T08:31:16.228Z,8.33
2019-05-06T08:36:15.190Z,8.48
2019-05-06T08:41:12.906Z,8.31
2019-05-06T08:46:12.559Z,8.18
2019-05-06T08:51:12.694Z,8.33
2019-05-06T08:56:12.674Z,8.41
2019-05-06T09:01:12.504Z,8.32
2019-05-06T09:06:26.048Z,8.31
2019-05-06T09:11:12.215Z,8.48
2019-05-06T09:16:12.804Z,8.40
2019-05-06T09:21:24.674Z,8.37
2019-05-06T09:26:42.949Z,8.21
2019-05-06T09:31:47.035Z,8.33
2019-05-06T09:36:54.959Z,8.20
2019-05-06T09:41:58.041Z,8.39
2019-05-06T09:47:02.416Z,8.29
2019-05-06T09:52:12.773Z,8.23
2019-05-06T09:57:27.707Z,8.28
2019-05-06T10:02:32.492Z,8.28
2019-05-06T10:07:28.213Z,8.19
2019-05-06T10:12:25.286Z,8.11
2019-05-06T10:17:22.465Z,8.33
2019-05-06T10:22:23.290Z,8.40
2019-05-06T10:27:26.796Z,8.34
2019-05-06T10:32:23.629Z,8.50
2019-05-06T10:37:35.528Z,7.86
2019-05-06T10:42:46.625Z,8.46
2019-05-06T10:47:44.770Z,8.53
2019-05-06T10:53:04.787Z,8.72
2019-05-06T11:13:15.843Z,8.80
2019-05-06T11:18:16.833Z,8.91
2019-05-06T11:23:14.476Z,8.65
2019-05-06T11:28:30.022Z,8.84
2019-05-06T11:33:42.662Z,8.68
2019-05-06T11:38:39.720Z,8.75
2019-05-06T11:43:37.131Z,8.73
2019-05-06T11:48:38.515Z,8.77
2019-05-06T11:53:35.900Z,8.74
2019-05-06T11:58:42.922Z,8.68
2019-05-06T12:03:40.228Z,8.66
2019-05-06T12:08:40.355Z,8.75
2019-05-06T12:13:38.267Z,8.62
2019-05-06T12:18:35.334Z,8.81
2019-05-06T12:23:35.290Z,8.86
2019-05-06T12:28:32.683Z,8.92
2019-05-06T12:33:35.814Z,8.74
2019-05-06T12:38:34.692Z,8.69
2019-05-06T12:43:33.677Z,8.73
2019-05-06T12:48:34.735Z,8.50
2019-05-06T12:53:42.791Z,8.52
2019-05-06T12:58:45.364Z,8.44
2019-05-06T13:03:43.275Z,8.58
2019-05-06T13:08:53.895Z,8.67
2019-05-06T13:13:56.809Z,8.61
2019-05-06T13:18:47.303Z,8.39
2019-05-06T13:23:44.831Z,8.54
2019-05-06T13:28:48.373Z,8.42
2019-05-06T13:33:56.334Z,8.42
2019-05-06T13:39:09.472Z,8.16
2019-05-06T13:43:56.917Z,8.30
2019-05-06T13:49:02.611Z,8.29
2019-05-06T13:54:05.017Z,8.45
2019-05-06T13:59:05.375Z,8.39
2019-05-06T14:04:05.212Z,8.16
2019-05-06T14:09:27.173Z,8.16
2019-05-06T14:14:06.964Z,8.33
2019-05-06T14:19:07.063Z,8.28
2019-05-06T14:24:04.107Z,8.29
2019-05-06T14:29:12.805Z,8.13
2019-05-06T14:34:12.012Z,8.03
2019-05-06T14:39:17.107Z,8.20
2019-05-06T14:44:16.123Z,8.05
2019-05-06T14:49:18.258Z,8.02
2019-05-06T14:54:18.782Z,8.12
2019-05-06T14:59:16.329Z,7.90
2019-05-06T15:04:15.669Z,8.01
2019-05-06T15:09:14.885Z,8.18
2019-05-06T15:14:13.077Z,8.07
2019-05-06T15:19:12.937Z,8.19
2019-05-06T15:24:14.197Z,8.15
2019-05-06T15:29:12.740Z,7.97
2019-05-06T15:34:13.641Z,7.94
2019-05-06T15:39:13.099Z,7.92
2019-05-06T15:44:09.778Z,8.00
2019-05-06T15:49:06.992Z,7.98
2019-05-06T15:54:05.444Z,8.06
2019-05-06T15:59:03.327Z,7.93
2019-05-06T16:04:00.435Z,7.91
2019-05-06T16:09:03.470Z,7.84
2019-05-06T16:14:02.887Z,7.74
2019-05-06T16:19:03.818Z,7.82
2019-05-06T16:24:03.161Z,7.75
2019-05-06T16:29:03.037Z,7.63
2019-05-06T16:34:03.137Z,7.73
2019-05-06T16:39:00.364Z,7.69
2019-05-06T16:43:57.534Z,7.59
2019-05-06T16:48:56.535Z,7.67
2019-05-06T16:53:53.806Z,7.65
2019-05-06T16:58:55.781Z,7.49
2019-05-06T17:03:54.981Z,7.52
2019-05-06T17:08:52.842Z,7.54
2019-05-06T17:13:52.371Z,7.54
2019-05-06T17:18:49.462Z,7.49
2019-05-06T17:23:52.202Z,7.51
2019-05-06T17:29:08.654Z,7.59
2019-05-06T17:34:12.757Z,7.64
2019-05-06T17:39:10.631Z,7.68
2019-05-06T17:44:09.044Z,7.50
2019-05-06T17:49:13.811Z,7.58
2019-05-06T17:54:12.592Z,7.60
2019-05-06T17:59:09.771Z,7.67
2019-05-06T18:04:06.986Z,7.62
2019-05-06T18:09:06.788Z,7.71
2019-05-06T18:14:05.984Z,7.62
2019-05-06T18:19:03.359Z,7.59
2019-05-06T18:24:02.962Z,7.62
2019-05-06T18:29:03.109Z,7.43
2019-05-06T18:34:00.202Z,7.49
2019-05-06T18:38:57.334Z,7.52
2019-05-06T18:43:54.402Z,7.38
2019-05-06T18:48:52.447Z,7.37
2019-05-06T18:53:52.179Z,7.67
2019-05-06T18:58:52.934Z,7.48
2019-05-06T19:04:05.829Z,7.45
2019-05-06T19:09:06.597Z,7.46
2019-05-06T19:14:03.663Z,7.38
2019-05-06T19:19:05.486Z,7.52
2019-05-06T19:24:04.830Z,7.69
2019-05-06T19:29:04.610Z,7.37
2019-05-06T19:34:03.226Z,7.40
2019-05-06T19:39:05.372Z,7.64
2019-05-06T19:44:02.410Z,7.73
2019-05-06T19:49:01.398Z,7.67
2019-05-06T19:53:58.472Z,7.64
2019-05-06T19:58:57.600Z,7.65
2019-05-06T20:03:55.021Z,7.54
2019-05-06T20:08:55.032Z,7.73
2019-05-06T20:13:52.577Z,7.78
2019-05-06T20:18:52.613Z,7.87
2019-05-06T20:23:52.592Z,7.85
2019-05-06T20:28:49.841Z,7.90
2019-05-06T20:33:46.930Z,7.99
2019-05-06T20:38:44.484Z,7.81
2019-05-06T20:43:42.327Z,7.92
2019-05-06T20:48:42.026Z,7.89
2019-05-06T20:53:38.561Z,8.00
2019-05-06T20:58:35.722Z,8.00
2019-05-06T21:03:32.884Z,7.99
2019-05-06T21:08:30.157Z,7.71
2019-05-06T21:13:32.980Z,7.58
2019-05-06T21:18:27.622Z,7.38
2019-05-06T21:23:24.662Z,7.51
2019-05-06T21:28:23.757Z,7.61
2019-05-06T21:33:22.145Z,7.71
2019-05-06T21:38:19.435Z,7.80
2019-05-06T21:43:16.378Z,7.91
2019-05-06T21:48:14.638Z,7.95
2019-05-06T21:53:14.390Z,8.03
2019-05-06T21:58:12.482Z,8.09
2019-05-06T22:03:09.449Z,8.15
2019-05-06T22:08:06.608Z,8.18
2019-05-06T22:13:03.735Z,7.91
2019-05-06T22:18:02.573Z,8.04
2019-05-06T22:22:59.806Z,7.97
2019-05-06T22:27:56.997Z,8.05
2019-05-06T22:32:53.998Z,8.02
2019-05-06T22:37:52.985Z,7.95
2019-05-06T22:42:52.610Z,7.96
2019-05-06T22:47:49.123Z,7.79
2019-05-06T22:52:48.573Z,7.88
2019-05-06T22:57:45.721Z,7.93
2019-05-06T23:02:44.543Z,7.98
2019-05-06T23:07:42.303Z,7.93
2019-05-06T23:12:39.400Z,7.99
2019-05-06T23:17:37.912Z,7.89
2019-05-06T23:22:36.794Z,7.93
2019-05-06T23:27:33.867Z,7.84
2019-05-06T23:32:32.627Z,7.95
2019-05-06T23:37:29.142Z,7.99
2019-05-06T23:43:22.276Z,7.90
2019-05-06T23:49:17.133Z,7.76
2019-05-06T23:55:12.843Z,7.85
